createdAt,value
2022-11-13T00:01:47.372Z,67.90
2022-11-13T00:04:35.243Z,56.97
2022-11-13T00:07:23.381Z,61.42
2022-11-13T00:10:11.619Z,57.28
2022-11-13T00:12:59.483Z,54.13
2022-11-13T00:16:02.589Z,55.15
2022-11-13T00:18:50.647Z,55.65
2022-11-13T00:21:38.701Z,61.33
2022-11-13T00:24:29.074Z,51.85
2022-11-13T00:27:16.875Z,54.75
2022-11-13T00:30:05.849Z,47.70
2022-11-13T00:32:56.023Z,51.17
2022-11-13T00:35:43.803Z,51.95
2022-11-13T00:38:31.906Z,45.38
2022-11-13T00:41:20.040Z,52.78
2022-11-13T00:44:08.287Z,56.65
2022-11-13T00:46:56.045Z,59.25
2022-11-13T00:49:43.826Z,49.08
2022-11-13T00:52:31.797Z,58.33
2022-11-13T00:55:19.548Z,46.63
2022-11-13T00:58:07.420Z,55.95
2022-11-13T01:00:55.353Z,48.45
2022-11-13T01:03:43.526Z,56.67
2022-11-13T01:06:31.338Z,61.55
2022-11-13T01:09:19.144Z,89.22
2022-11-13T01:12:06.955Z,69.60
2022-11-13T01:14:55.042Z,56.80
2022-11-13T01:17:43.022Z,54.50
2022-11-13T01:20:32.607Z,48.70
2022-11-13T01:23:20.425Z,50.92
2022-11-13T01:26:30.036Z,56.28
2022-11-13T01:29:17.914Z,61.65
2022-11-13T01:32:05.864Z,38.58
2022-11-13T01:34:53.771Z,35.45
2022-11-13T01:37:44.211Z,50.25
2022-11-13T01:40:31.994Z,42.72
2022-11-13T01:43:38.413Z,44.78
2022-11-13T01:46:35.951Z,44.55
2022-11-13T01:49:37.785Z,45.03
2022-11-13T01:52:34.258Z,41.92
2022-11-13T01:55:22.303Z,43.85
2022-11-13T01:58:11.436Z,46.00
2022-11-13T02:00:59.695Z,43.35
2022-11-13T02:03:47.635Z,44.83
2022-11-13T02:06:51.496Z,41.40
2022-11-13T02:09:59.914Z,42.90
2022-11-13T02:12:52.067Z,41.65
2022-11-13T02:15:40.799Z,53.67
2022-11-13T02:18:30.793Z,51.92
2022-11-13T02:21:43.330Z,57.33
2022-11-13T02:24:44.832Z,53.67
2022-11-13T02:27:40.519Z,50.53
2022-11-13T02:30:32.680Z,59.15
2022-11-13T02:33:33.817Z,57.92
2022-11-13T02:36:24.287Z,52.35
2022-11-13T02:39:14.228Z,72.00
2022-11-13T02:42:02.240Z,50.65
2022-11-13T02:44:50.245Z,51.08
2022-11-13T02:47:38.224Z,54.72
2022-11-13T02:50:26.148Z,48.75
2022-11-13T02:53:13.995Z,49.45
2022-11-13T02:56:01.913Z,43.78
2022-11-13T02:58:49.935Z,58.15
2022-11-13T03:01:37.902Z,43.72
2022-11-13T03:04:31.477Z,47.90
2022-11-13T03:07:26.453Z,42.38
2022-11-13T03:10:14.888Z,32.67
2022-11-13T03:13:03.035Z,33.60
2022-11-13T03:15:50.817Z,65.82
2022-11-13T03:18:38.948Z,35.30
2022-11-13T03:21:26.824Z,36.67
2022-11-13T03:24:14.655Z,44.83
2022-11-13T03:27:02.753Z,44.97
2022-11-13T03:29:50.681Z,40.33
2022-11-13T03:32:38.471Z,41.00
2022-11-13T03:35:30.476Z,43.10
2022-11-13T03:38:19.207Z,45.97
2022-11-13T03:41:07.123Z,51.92
2022-11-13T03:43:55.107Z,40.28
2022-11-13T03:46:43.075Z,33.10
2022-11-13T03:49:30.901Z,34.00
2022-11-13T03:52:18.765Z,35.67
2022-11-13T03:55:06.933Z,34.20
2022-11-13T03:57:55.715Z,36.67
2022-11-13T04:00:45.276Z,37.17
2022-11-13T04:03:33.308Z,33.63
2022-11-13T04:06:21.996Z,33.63
2022-11-13T04:09:09.916Z,32.85
2022-11-13T04:11:57.741Z,35.60
2022-11-13T04:14:45.599Z,40.35
2022-11-13T04:17:34.087Z,46.65
2022-11-13T04:20:22.291Z,50.78
2022-11-13T04:23:12.595Z,37.92
2022-11-13T04:26:00.483Z,36.13
2022-11-13T04:28:48.271Z,33.20
2022-11-13T04:31:36.188Z,38.30
2022-11-13T04:34:24.064Z,30.73
2022-11-13T04:37:11.967Z,25.67
2022-11-13T04:39:59.827Z,27.50
2022-11-13T04:42:50.243Z,26.15
2022-11-13T04:45:38.097Z,27.60
2022-11-13T04:48:26.180Z,24.40
2022-11-13T04:51:14.368Z,25.70
2022-11-13T04:54:02.360Z,27.33
2022-11-13T04:56:50.231Z,30.88
2022-11-13T04:59:38.107Z,31.45
2022-11-13T05:02:26.270Z,30.45
2022-11-13T05:05:14.144Z,32.10
2022-11-13T05:08:02.106Z,30.50
2022-11-13T05:10:49.879Z,28.48
2022-11-13T05:13:37.805Z,27.40
2022-11-13T05:16:25.733Z,29.73
2022-11-13T05:19:13.668Z,27.88
2022-11-13T05:22:01.891Z,26.88
2022-11-13T05:24:49.651Z,26.63
2022-11-13T05:27:37.432Z,27.27
2022-11-13T05:30:25.482Z,25.98
2022-11-13T05:33:13.313Z,29.77
2022-11-13T05:36:20.467Z,24.58
2022-11-13T05:39:08.286Z,23.65
2022-11-13T05:41:56.096Z,29.20
2022-11-13T05:44:43.951Z,25.45
2022-11-13T05:47:33.362Z,24.83
2022-11-13T05:50:21.233Z,26.85
2022-11-13T05:53:11.376Z,25.20
2022-11-13T05:56:08.244Z,27.20
2022-11-13T05:58:57.729Z,24.60
2022-11-13T06:01:45.528Z,25.67
2022-11-13T06:04:33.529Z,26.52
2022-11-13T06:07:21.536Z,27.25
2022-11-13T06:10:09.738Z,26.40
2022-11-13T06:12:57.643Z,28.83
2022-11-13T06:15:45.457Z,27.60
2022-11-13T06:18:34.490Z,28.20
2022-11-13T06:21:26.656Z,25.33
2022-11-13T06:24:14.511Z,27.00
2022-11-13T06:27:02.378Z,28.60
2022-11-13T06:29:50.188Z,27.45
2022-11-13T06:32:38.093Z,30.35
2022-11-13T06:35:26.283Z,30.02
2022-11-13T06:38:14.508Z,31.98
2022-11-13T06:41:04.158Z,37.70
2022-11-13T06:43:52.328Z,38.35
2022-11-13T06:46:40.154Z,45.60
2022-11-13T06:49:27.935Z,36.83
2022-11-13T06:52:15.719Z,38.90
2022-11-13T06:55:03.720Z,43.85
2022-11-13T06:57:51.526Z,46.05
2022-11-13T07:00:40.743Z,35.85
2022-11-13T07:03:28.614Z,33.17
2022-11-13T07:06:22.292Z,29.83
2022-11-13T07:09:10.295Z,33.33
2022-11-13T07:11:58.368Z,34.70
2022-11-13T07:14:46.351Z,30.95
2022-11-13T07:17:34.328Z,31.38
2022-11-13T07:20:22.317Z,33.47
2022-11-13T07:23:10.633Z,31.33
2022-11-13T07:25:58.590Z,35.20
2022-11-13T07:28:47.653Z,29.27
2022-11-13T07:31:36.072Z,23.77
2022-11-13T07:34:25.877Z,26.33
2022-11-13T07:37:13.866Z,28.25
2022-11-13T07:40:02.596Z,24.92
2022-11-13T07:43:01.965Z,25.65
2022-11-13T07:45:54.603Z,23.58
2022-11-13T07:48:42.726Z,23.15
2022-11-13T07:51:30.793Z,27.13
2022-11-13T07:54:18.823Z,21.63
2022-11-13T07:57:06.754Z,20.10
2022-11-13T07:59:54.781Z,16.30
2022-11-13T08:02:42.719Z,14.75
2022-11-13T08:05:30.926Z,12.75
2022-11-13T08:08:18.983Z,12.27
2022-11-13T08:11:09.530Z,11.13
2022-11-13T08:13:57.462Z,10.60
2022-11-13T08:16:45.570Z,10.93
2022-11-13T08:19:33.458Z,11.10
2022-11-13T08:22:21.531Z,9.95
2022-11-13T08:25:09.599Z,8.68
2022-11-13T08:27:59.890Z,9.55
2022-11-13T08:30:47.921Z,9.38
2022-11-13T08:33:35.790Z,9.88
2022-11-13T08:36:24.200Z,8.38
2022-11-13T08:39:15.216Z,7.55
2022-11-13T08:42:04.895Z,8.73
2022-11-13T08:44:55.204Z,8.32
2022-11-13T08:47:43.091Z,7.63
2022-11-13T08:50:33.150Z,7.72
2022-11-13T08:53:22.824Z,7.90
2022-11-13T08:56:10.744Z,7.53
2022-11-13T08:59:00.989Z,6.63
2022-11-13T09:01:49.077Z,7.78
2022-11-13T09:04:37.045Z,7.55
2022-11-13T09:07:27.644Z,7.63
2022-11-13T09:10:17.900Z,6.97
2022-11-13T09:13:08.982Z,7.50
2022-11-13T09:15:59.698Z,7.38
2022-11-13T09:18:51.614Z,7.10
2022-11-13T09:21:39.479Z,7.50
2022-11-13T09:24:27.538Z,7.80
2022-11-13T09:27:18.593Z,7.47
2022-11-13T09:30:07.292Z,7.13
2022-11-13T09:33:00.724Z,7.43
2022-11-13T09:35:48.736Z,7.00
2022-11-13T09:38:36.668Z,7.55
2022-11-13T09:41:31.499Z,6.80
2022-11-13T09:44:47.086Z,6.95
2022-11-13T09:47:42.676Z,7.00
2022-11-13T09:50:32.000Z,6.32
2022-11-13T09:53:22.355Z,6.68
2022-11-13T09:56:27.860Z,6.90
2022-11-13T09:59:29.225Z,6.88
2022-11-13T10:02:54.091Z,7.18
2022-11-13T10:06:21.372Z,7.28
2022-11-13T10:09:32.080Z,7.20
2022-11-13T10:12:29.129Z,6.30
2022-11-13T10:15:20.515Z,6.88
2022-11-13T10:18:33.788Z,6.78
2022-11-13T10:21:39.408Z,6.90
2022-11-13T10:24:40.955Z,7.03
2022-11-13T10:27:29.642Z,7.03
2022-11-13T10:30:21.033Z,6.55
2022-11-13T10:33:18.817Z,6.40
2022-11-13T10:36:37.064Z,8.27
2022-11-13T10:39:27.830Z,6.72
2022-11-13T10:42:36.999Z,6.68
2022-11-13T10:45:26.638Z,6.40
2022-11-13T10:48:50.164Z,6.05
2022-11-13T10:53:01.585Z,6.22
2022-11-13T10:59:55.869Z,6.10
2022-11-13T11:03:01.675Z,6.75
2022-11-13T11:06:56.375Z,6.25
2022-11-13T11:10:27.977Z,7.05
2022-11-13T11:13:44.651Z,7.47
2022-11-13T11:16:49.441Z,6.55
2022-11-13T11:20:42.506Z,6.15
2022-11-13T11:24:26.120Z,6.28
2022-11-13T11:31:45.280Z,6.35
2022-11-13T11:44:58.383Z,6.47
2022-11-13T11:49:11.791Z,6.40
2022-11-13T11:53:05.268Z,6.53
2022-11-13T11:57:11.986Z,6.75
2022-11-13T12:01:03.319Z,7.00
2022-11-13T12:08:32.403Z,7.55
2022-11-13T12:11:38.580Z,7.82
2022-11-13T12:14:50.957Z,7.72
2022-11-13T12:18:04.736Z,7.10
2022-11-13T12:22:30.557Z,7.45
2022-11-13T12:26:17.349Z,6.32
2022-11-13T12:29:56.385Z,6.60
2022-11-13T12:33:29.345Z,6.22
2022-11-13T12:36:29.378Z,5.95
2022-11-13T12:40:03.176Z,6.15
2022-11-13T12:43:32.375Z,6.55
2022-11-13T12:46:41.606Z,6.43
2022-11-13T12:50:32.112Z,6.20
2022-11-13T12:53:45.150Z,6.65
2022-11-13T12:56:40.759Z,7.28
2022-11-13T12:59:53.188Z,6.75
2022-11-13T13:02:59.154Z,6.82
2022-11-13T13:06:11.978Z,6.63
2022-11-13T13:09:33.636Z,6.22
2022-11-13T13:12:39.126Z,6.43
2022-11-13T13:15:37.093Z,6.05
2022-11-13T13:18:33.390Z,6.22
2022-11-13T13:21:22.108Z,5.97
2022-11-13T13:24:38.598Z,6.50
2022-11-13T13:27:30.653Z,6.05
2022-11-13T13:30:27.721Z,6.40
2022-11-13T13:33:42.311Z,6.97
2022-11-13T13:40:11.325Z,6.68
2022-11-13T13:43:27.364Z,6.25
2022-11-13T13:46:27.547Z,6.10
2022-11-13T13:49:24.324Z,6.45
2022-11-13T13:52:16.213Z,5.80
2022-11-13T13:55:09.460Z,5.53
2022-11-13T13:58:02.763Z,5.30
2022-11-13T14:01:20.265Z,5.20
2022-11-13T14:04:27.352Z,5.20
2022-11-13T14:07:30.904Z,5.47
2022-11-13T14:10:28.580Z,4.85
2022-11-13T14:13:30.867Z,5.05
2022-11-13T14:16:19.059Z,5.20
2022-11-13T14:19:11.447Z,5.18
2022-11-13T14:22:10.857Z,4.97
2022-11-13T14:25:04.228Z,5.38
2022-11-13T14:27:53.179Z,5.38
2022-11-13T14:30:44.902Z,5.00
2022-11-13T14:33:44.680Z,5.15
2022-11-13T14:36:41.219Z,5.75
2022-11-13T14:39:34.593Z,5.57
2022-11-13T14:42:29.449Z,5.57
2022-11-13T14:45:33.764Z,6.55
2022-11-13T14:51:30.407Z,5.80
2022-11-13T14:55:14.397Z,6.72
2022-11-13T14:57:55.406Z,6.93
2022-11-13T15:00:43.758Z,7.18
2022-11-13T15:03:32.567Z,6.57
2022-11-13T15:06:24.895Z,6.78
2022-11-13T15:09:16.636Z,7.82
2022-11-13T15:12:04.850Z,10.65
2022-11-13T15:14:52.935Z,9.77
2022-11-13T15:17:43.696Z,7.57
2022-11-13T15:20:32.828Z,9.73
2022-11-13T15:23:27.116Z,9.80
2022-11-13T15:26:15.656Z,6.90
2022-11-13T15:29:12.696Z,7.30
2022-11-13T15:32:05.625Z,7.10
2022-11-13T15:35:01.641Z,7.72
2022-11-13T15:37:56.526Z,7.68
2022-11-13T15:40:44.580Z,8.75
2022-11-13T15:43:36.142Z,7.93
2022-11-13T15:46:25.294Z,8.48
2022-11-13T15:49:24.257Z,8.02
2022-11-13T15:52:17.654Z,7.78
2022-11-13T15:55:32.870Z,8.67
2022-11-13T15:58:21.150Z,9.02
2022-11-13T16:01:32.655Z,8.40
2022-11-13T16:04:22.295Z,8.43
2022-11-13T16:07:21.636Z,9.48
2022-11-13T16:10:12.692Z,9.90
2022-11-13T16:13:00.634Z,9.43
2022-11-13T16:15:49.620Z,10.43
2022-11-13T16:18:43.152Z,10.70
2022-11-13T16:21:34.097Z,11.68
2022-11-13T16:24:24.363Z,11.63
2022-11-13T16:27:32.035Z,12.18
2022-11-13T16:30:26.980Z,9.75
2022-11-13T16:33:17.689Z,11.45
2022-11-13T16:36:10.172Z,11.30
2022-11-13T16:41:50.428Z,11.40
2022-11-13T16:44:38.995Z,11.55
2022-11-13T16:47:37.654Z,10.40
2022-11-13T16:50:31.810Z,9.38
2022-11-13T16:56:27.545Z,10.40
2022-11-13T16:59:16.086Z,8.85
2022-11-13T17:02:04.403Z,9.25
2022-11-13T17:04:56.030Z,8.07
2022-11-13T17:07:47.257Z,7.85
2022-11-13T17:10:35.621Z,8.75
2022-11-13T17:13:23.753Z,18.48
2022-11-13T17:16:13.211Z,15.50
2022-11-13T17:19:03.408Z,9.10
2022-11-13T17:21:53.979Z,9.48
2022-11-13T17:24:42.018Z,7.63
2022-11-13T17:27:30.013Z,6.72
2022-11-13T17:30:18.073Z,6.70
2022-11-13T17:33:06.155Z,7.05
2022-11-13T17:35:55.977Z,6.93
2022-11-13T17:38:46.144Z,7.53
2022-11-13T17:41:38.088Z,7.30
2022-11-13T17:44:30.266Z,7.75
2022-11-13T17:47:18.789Z,7.40
2022-11-13T17:50:07.964Z,7.47
2022-11-13T17:52:56.086Z,6.97
2022-11-13T17:55:44.858Z,8.15
2022-11-13T17:58:41.716Z,8.10
2022-11-13T18:01:31.750Z,8.10
2022-11-13T18:04:19.996Z,9.30
2022-11-13T18:07:08.173Z,7.80
2022-11-13T18:09:59.428Z,8.15
2022-11-13T18:12:47.674Z,7.88
2022-11-13T18:15:39.087Z,8.65
2022-11-13T18:18:28.914Z,8.85
2022-11-13T18:21:25.606Z,8.65
2022-11-13T18:24:18.245Z,9.30
2022-11-13T18:27:13.766Z,9.60
2022-11-13T18:30:04.065Z,8.90
2022-11-13T18:32:52.091Z,9.63
2022-11-13T18:35:40.265Z,11.05
2022-11-13T18:38:28.680Z,9.68
2022-11-13T18:41:20.394Z,10.30
2022-11-13T18:44:10.998Z,10.68
2022-11-13T18:47:02.044Z,9.80
2022-11-13T18:49:58.082Z,10.63
2022-11-13T18:52:46.074Z,9.70
2022-11-13T18:55:34.010Z,11.55
2022-11-13T18:58:22.047Z,10.75
2022-11-13T19:01:22.508Z,10.27
2022-11-13T19:04:27.444Z,13.00
2022-11-13T19:07:21.141Z,12.38
2022-11-13T19:10:09.629Z,10.32
2022-11-13T19:12:57.544Z,10.38
2022-11-13T19:15:47.652Z,10.40
2022-11-13T19:18:38.087Z,9.75
2022-11-13T19:21:30.640Z,8.60
2022-11-13T19:24:18.662Z,8.43
2022-11-13T19:27:09.350Z,7.93
2022-11-13T19:29:57.830Z,7.55
2022-11-13T19:32:45.773Z,9.00
2022-11-13T19:35:38.927Z,8.95
2022-11-13T19:38:33.024Z,8.52
2022-11-13T19:44:13.451Z,9.65
2022-11-13T19:47:01.417Z,12.77
2022-11-13T19:49:49.680Z,11.90
2022-11-13T19:52:38.721Z,9.00
2022-11-13T19:55:26.706Z,8.57
2022-11-13T19:58:20.706Z,6.93
2022-11-13T20:01:11.744Z,8.75
2022-11-13T20:04:04.119Z,8.82
2022-11-13T20:06:52.145Z,10.02
2022-11-13T20:09:47.490Z,9.55
2022-11-13T20:12:35.921Z,10.68
2022-11-13T20:15:37.140Z,9.95
2022-11-13T20:18:33.556Z,9.52
2022-11-13T20:21:28.693Z,10.38
2022-11-13T20:24:19.824Z,10.77
2022-11-13T20:27:09.419Z,9.60
2022-11-13T20:30:02.937Z,10.38
2022-11-13T20:32:53.742Z,10.50
2022-11-13T20:35:46.921Z,9.93
2022-11-13T20:38:41.621Z,10.17
2022-11-13T20:41:32.374Z,10.20
2022-11-13T20:44:46.917Z,11.25
2022-11-13T20:47:42.003Z,11.27
2022-11-13T20:50:34.763Z,11.68
2022-11-13T20:53:29.797Z,10.95
2022-11-13T20:56:23.586Z,12.05
2022-11-13T20:59:11.846Z,12.63
2022-11-13T21:02:00.062Z,12.50
2022-11-13T21:04:54.207Z,12.88
2022-11-13T21:10:39.503Z,12.77
2022-11-13T21:13:32.020Z,14.02
2022-11-13T21:16:20.267Z,14.82
2022-11-13T21:19:09.968Z,14.80
2022-11-13T21:21:57.810Z,15.13
2022-11-13T21:24:45.621Z,15.13
2022-11-13T21:27:33.571Z,15.80
2022-11-13T21:30:22.356Z,15.18
2022-11-13T21:33:10.225Z,15.25
2022-11-13T21:36:05.281Z,14.57
2022-11-13T21:38:55.068Z,15.77
2022-11-13T21:41:42.840Z,16.98
2022-11-13T21:44:49.669Z,17.33
2022-11-13T21:47:37.559Z,17.27
2022-11-13T21:50:27.994Z,16.17
2022-11-13T21:53:15.840Z,16.30
2022-11-13T21:56:04.546Z,16.23
2022-11-13T21:58:56.038Z,16.35
2022-11-13T22:01:44.064Z,16.33
2022-11-13T22:04:31.966Z,14.73
2022-11-13T22:07:19.918Z,13.05
2022-11-13T22:10:08.744Z,12.57
2022-11-13T22:12:56.737Z,12.90
2022-11-13T22:15:44.720Z,11.55
2022-11-13T22:18:33.520Z,11.80
2022-11-13T22:21:22.957Z,11.93
2022-11-13T22:24:12.054Z,12.20
2022-11-13T22:26:59.922Z,12.20
2022-11-13T22:29:47.777Z,12.85
2022-11-13T22:32:35.538Z,13.30
2022-11-13T22:35:23.359Z,12.50
2022-11-13T22:38:12.339Z,12.60
2022-11-13T22:41:05.333Z,10.75
2022-11-13T22:43:57.110Z,10.48
2022-11-13T22:46:44.892Z,11.13
2022-11-13T22:49:32.670Z,10.65
2022-11-13T22:52:20.512Z,9.32
2022-11-13T22:55:08.647Z,9.63
2022-11-13T22:57:59.216Z,9.43
2022-11-13T23:00:47.097Z,9.00
2022-11-13T23:03:40.268Z,9.55
2022-11-13T23:06:31.717Z,10.53
2022-11-13T23:09:22.378Z,10.10
2022-11-13T23:12:10.480Z,9.60
2022-11-13T23:14:58.483Z,9.40
2022-11-13T23:17:46.949Z,9.93
2022-11-13T23:20:40.326Z,10.25
2022-11-13T23:23:28.562Z,9.25
2022-11-13T23:26:17.256Z,9.82
2022-11-13T23:29:05.040Z,9.02
2022-11-13T23:31:52.872Z,9.00
2022-11-13T23:34:58.790Z,8.77
2022-11-13T23:37:47.594Z,8.23
2022-11-13T23:40:35.666Z,7.95
2022-11-13T23:43:36.414Z,9.25
2022-11-13T23:46:32.733Z,8.52
2022-11-13T23:49:20.637Z,8.77
2022-11-13T23:52:08.476Z,9.27
2022-11-13T23:54:56.433Z,8.35
2022-11-13T23:57:44.383Z,8.90
